Time;durP1;ratioP1;P1;durP2;ratioP2;P2;SDS_P1;SDS_P2;PMS_P1;PMS_P2;Temp;Humidity;BMP_temperature;BMP_pressure;BME280_temperature;BME280_humidity;BME280_pressure;Samples;Min_cycle;Max_cycle;Signal;HPM_P1;HPM_P2
2022/09/26 00:01:12;;;;;;;;;;;;;;;15.52;79.18;99837.22;5056513;28;1295;-69
2022/09/26 00:03:37;;;;;;;;;;;;;;;15.51;79.37;99830.91;5056526;28;1059;-68
2022/09/26 00:06:06;;;;;;;;;;;;;;;15.51;79.62;99825.38;5056052;28;928;-68
2022/09/26 00:08:32;;;;;;;;;;;;;;;15.50;79.33;99820.19;5056423;28;1027;-68
2022/09/26 00:10:58;;;;;;;;;;;;;;;15.50;79.24;99809.97;5056346;28;1192;-69
2022/09/26 00:13:24;;;;;;;;;;;;;;;15.50;79.41;99804.44;5056323;28;817;-69
2022/09/26 00:15:49;;;;;;;;;;;;;;;15.48;78.97;99795.69;5056094;28;1889;-69
2022/09/26 00:18:14;;;;;;;;;;;;;;;15.48;78.98;99792.94;5056223;28;888;-70
2022/09/26 00:20:39;;;;;;;;;;;;;;;15.48;79.38;99789.38;5056158;28;1225;-69
2022/09/26 00:23:04;;;;;;;;;;;;;;;15.47;78.94;99783.06;5056164;28;677;-69
2022/09/26 00:25:29;;;;;;;;;;;;;;;15.47;79.33;99783.06;5056025;28;809;-69
2022/09/26 00:27:55;;;;;;;;;;;;;;;15.47;78.93;99782.25;5055965;28;912;-69
2022/09/26 00:30:20;;;;;;;;;;;;;;;15.46;79.47;99788.91;5055929;28;1304;-69
2022/09/26 00:32:45;;;;;;;;;;;;;;;15.45;78.89;99782.56;5055962;28;947;-69
2022/09/26 00:35:10;;;;;;;;;;;;;;;15.45;79.03;99777.06;5055757;28;1910;-69
2022/09/26 00:37:35;;;;;;;;;;;;;;;15.45;79.46;99774.31;5055738;28;812;-69
2022/09/26 00:40:00;;;;;;;;;;;;;;;15.44;79.15;99771.88;5055807;28;1303;-69
2022/09/26 00:42:26;;;;;;;;;;;;;;;15.44;78.97;99769.13;5056135;28;699;-69
2022/09/26 00:44:55;;;;;;;;;;;;;;;15.42;79.26;99763.91;5055863;28;812;-68
2022/09/26 00:47:24;;;;;;;;;;;;;;;15.43;79.00;99770.25;5054964;28;887;-68
2022/09/26 00:49:51;;;;;;;;;;;;;;;15.41;79.73;99764.25;5055309;28;1235;-69
2022/09/26 00:52:19;;;;;;;;;;;;;;;15.41;79.01;99767.81;5055678;28;856;-69
2022/09/26 00:54:47;;;;;;;;;;;;;;;15.41;78.84;99764.25;5055530;28;1893;-69
2022/09/26 00:57:16;;;;;;;;;;;;;;;15.40;79.48;99757.91;5055346;28;864;-69
2022/09/26 00:59:42;;;;;;;;;;;;;;;15.39;79.41;99755.53;5055377;28;1325;-69
2022/09/26 01:02:08;;;;;;;;;;;;;;;15.39;78.87;99752.75;5055331;28;1007;-69
2022/09/26 01:04:34;;;;;;;;;;;;;;;15.38;78.99;99745.63;5055352;28;992;-69
2022/09/26 01:07:01;;;;;;;;;;;;;;;15.38;78.88;99746.44;5055061;28;1023;-69
2022/09/26 01:09:27;;;;;;;;;;;;;;;15.38;79.31;99751.13;5055221;28;1292;-69
2022/09/26 01:11:53;;;;;;;;;;;;;;;15.37;78.85;99746.75;5055372;28;955;-68
2022/09/26 01:14:18;;;;;;;;;;;;;;;15.36;78.91;99739.63;5055087;28;1890;-68
2022/09/26 01:16:45;;;;;;;;;;;;;;;15.36;79.27;99732.16;5054781;28;983;-68
2022/09/26 01:19:24;;;;;;;;;;;;;;;15.34;78.87;99726.16;5055110;28;852;-69
2022/09/26 01:22:08;;;;;;;;;;;;;;;15.36;79.33;99714.81;5055039;28;1030;-69
2022/09/26 01:24:52;;;;;;;;;;;;;;;15.33;78.95;99713.50;5055015;28;964;-69
2022/09/26 01:27:28;;;;;;;;;;;;;;;15.34;78.47;99711.56;5054653;28;1081;-69
2022/09/26 01:30:08;;;;;;;;;;;;;;;15.32;79.21;99706.38;5054940;28;1618;-68
2022/09/26 01:32:47;;;;;;;;;;;;;;;15.32;78.93;99706.38;5054795;28;802;-69
2022/09/26 01:35:13;;;;;;;;;;;;;;;15.32;78.84;99711.88;5054815;28;1959;-69
2022/09/26 01:37:46;;;;;;;;;;;;;;;15.30;78.96;99711.44;5054515;28;877;-69
2022/09/26 01:40:26;;;;;;;;;;;;;;;15.31;79.23;99710.25;5054717;28;1225;-68
2022/09/26 01:42:51;;;;;;;;;;;;;;;15.29;79.03;99707.06;5054787;28;892;-68
2022/09/26 01:45:17;;;;;;;;;;;;;;;15.30;79.16;99705.91;5054602;28;857;-68
2022/09/26 01:47:45;;;;;;;;;;;;;;;15.29;78.76;99698.78;5054244;28;877;-69
2022/09/26 01:50:10;;;;;;;;;;;;;;;15.29;79.29;99698.78;5054223;28;1288;-69
2022/09/26 01:52:58;;;;;;;;;;;;;;;15.28;78.61;99699.09;5054425;28;864;-69
2022/09/26 01:55:27;;;;;;;;;;;;;;;15.28;78.84;99691.66;5054283;28;1960;-68
2022/09/26 01:58:04;;;;;;;;;;;;;;;15.28;78.74;99693.59;5053719;28;877;-69
2022/09/26 02:00:30;;;;;;;;;;;;;;;15.27;78.83;99687.28;5053909;28;1208;-69
2022/09/26 02:02:57;;;;;;;;;;;;;;;15.26;79.33;99679.31;5054201;28;909;-68
2022/09/26 02:05:32;;;;;;;;;;;;;;;15.26;79.10;99685.66;5054220;28;991;-69
2022/09/26 02:08:03;;;;;;;;;;;;;;;15.26;79.62;99680.13;5053908;28;888;-69
2022/09/26 02:10:37;;;;;;;;;;;;;;;15.24;79.26;99671.38;5054030;28;1204;-68
2022/09/26 02:13:07;;;;;;;;;;;;;;;15.23;78.75;99669.75;5054003;28;872;-68
2022/09/26 02:15:33;;;;;;;;;;;;;;;15.23;79.12;99664.25;5054071;28;1894;-69
2022/09/26 02:18:13;;;;;;;;;;;;;;;15.23;78.72;99660.69;5053735;28;999;-69
2022/09/26 02:20:40;;;;;;;;;;;;;;;15.23;78.70;99661.50;5053870;28;1224;-69
2022/09/26 02:23:05;;;;;;;;;;;;;;;15.22;78.75;99654.38;5053910;28;798;-69
2022/09/26 02:25:31;;;;;;;;;;;;;;;15.21;78.91;99650.00;5053760;28;817;-68
2022/09/26 02:27:57;;;;;;;;;;;;;;;15.22;78.93;99653.56;5053651;28;792;-69
2022/09/26 02:30:22;;;;;;;;;;;;;;;15.22;79.28;99645.31;5053752;28;1204;-69
2022/09/26 02:32:47;;;;;;;;;;;;;;;15.21;79.46;99650.00;5053714;28;1039;-68
2022/09/26 02:37:58;;;;;;;;;;;;;;;15.21;78.42;99640.94;5053476;28;635;-69
2022/09/26 02:40:26;;;;;;;;;;;;;;;15.20;79.15;99637.34;5053480;28;1201;-69
2022/09/26 02:42:58;;;;;;;;;;;;;;;15.19;78.93;99630.22;5053581;28;916;-68
2022/09/26 02:45:27;;;;;;;;;;;;;;;15.19;78.63;99621.97;5052320;28;1032;-69
2022/09/26 02:48:15;;;;;;;;;;;;;;;15.19;79.22;99621.97;5053312;28;987;-69
2022/09/26 02:50:46;;;;;;;;;;;;;;;15.19;78.92;99616.44;5083054;22;2178;-61
2022/09/26 02:53:17;;;;;;;;;;;;;;;15.19;78.69;99612.88;5014177;28;844;-61
2022/09/26 02:56:02;;;;;;;;;;;;;;;15.19;79.23;99615.63;5023210;28;1979;-61
2022/09/26 02:58:37;;;;;;;;;;;;;;;15.19;79.07;99604.59;5033027;28;789;-61
2022/09/26 03:01:10;;;;;;;;;;;;;;;15.18;79.44;99605.75;5033201;28;1300;-61
2022/09/26 03:03:41;;;;;;;;;;;;;;;15.17;79.20;99604.94;5033438;28;908;-61
2022/09/26 03:06:10;;;;;;;;;;;;;;;15.16;79.24;99597.81;5033034;28;872;-61
2022/09/26 03:08:37;;;;;;;;;;;;;;;15.17;78.47;99595.84;5033210;28;773;-62
2022/09/26 03:11:04;;;;;;;;;;;;;;;15.16;78.45;99589.53;5033160;28;1602;-61
2022/09/26 03:13:32;;;;;;;;;;;;;;;15.15;79.38;99580.44;5033342;28;849;-61
2022/09/26 03:15:58;;;;;;;;;;;;;;;15.16;79.33;99584.03;5033226;28;1909;-61
2022/09/26 03:18:27;;;;;;;;;;;;;;;15.15;79.33;99576.88;5033293;28;1056;-61
2022/09/26 03:20:55;;;;;;;;;;;;;;;15.15;78.52;99574.13;5032939;28;1304;-62
2022/09/26 03:23:22;;;;;;;;;;;;;;;15.14;78.65;99572.53;5033141;28;987;-61
2022/09/26 03:25:56;;;;;;;;;;;;;;;15.14;78.70;99561.50;5032908;28;900;-61
2022/09/26 03:28:21;;;;;;;;;;;;;;;15.14;79.28;99567.03;5033130;28;1035;-61
2022/09/26 03:30:46;;;;;;;;;;;;;;;15.13;79.05;99559.91;5032969;28;1213;-62
2022/09/26 03:33:12;;;;;;;;;;;;;;;15.12;79.21;99550.81;5032995;28;816;-61
2022/09/26 03:35:37;;;;;;;;;;;;;;;15.12;78.63;99547.25;5033095;28;2030;-61
2022/09/26 03:38:02;;;;;;;;;;;;;;;15.12;79.30;99555.53;5032791;28;1046;-62
2022/09/26 03:40:27;;;;;;;;;;;;;;;15.11;78.97;99540.94;5032889;28;1297;-61
2022/09/26 03:42:53;;;;;;;;;;;;;;;15.12;78.99;99547.25;5032958;28;940;-61
2022/09/26 03:45:19;;;;;;;;;;;;;;;15.12;78.80;99552.75;5032906;28;1235;-61
2022/09/26 03:47:44;;;;;;;;;;;;;;;15.11;78.75;99534.59;5032662;28;825;-61
2022/09/26 03:50:09;;;;;;;;;;;;;;;15.11;79.18;99537.38;5032648;28;1302;-61
2022/09/26 03:52:35;;;;;;;;;;;;;;;15.10;78.39;99533.00;5032845;28;1038;-61
2022/09/26 03:55:00;;;;;;;;;;;;;;;15.10;79.24;99524.72;5032916;28;1902;-61
2022/09/26 03:57:25;;;;;;;;;;;;;;;15.09;78.13;99526.66;5032621;28;671;-61
2022/09/26 03:59:50;;;;;;;;;;;;;;;15.09;79.29;99515.66;5032782;28;1203;-62
2022/09/26 04:02:16;;;;;;;;;;;;;;;15.09;78.59;99520.34;5032781;28;790;-61
2022/09/26 04:04:41;;;;;;;;;;;;;;;15.09;79.25;99520.34;5033219;28;980;-61
2022/09/26 04:07:06;;;;;;;;;;;;;;;15.07;79.02;99515.16;5032542;28;991;-61
2022/09/26 04:09:31;;;;;;;;;;;;;;;15.07;79.03;99512.41;5032769;28;980;-61
2022/09/26 04:11:56;;;;;;;;;;;;;;;15.07;79.07;99509.66;5032809;28;1199;-61
2022/09/26 04:14:21;;;;;;;;;;;;;;;15.07;78.42;99504.13;5032526;28;1953;-61
2022/09/26 04:16:47;;;;;;;;;;;;;;;15.07;78.77;99498.63;5032404;28;781;-61
2022/09/26 04:19:12;;;;;;;;;;;;;;;15.07;79.11;99495.06;5032543;28;940;-61
2022/09/26 04:21:38;;;;;;;;;;;;;;;15.07;79.15;99495.06;5033019;28;1278;-61
2022/09/26 04:24:04;;;;;;;;;;;;;;;15.06;79.09;99487.94;5036620;28;916;-61
2022/09/26 04:26:29;;;;;;;;;;;;;;;15.05;79.33;99486.34;5035866;28;995;-61
2022/09/26 04:28:55;;;;;;;;;;;;;;;15.06;79.06;99490.69;5036117;28;987;-61
2022/09/26 04:31:20;;;;;;;;;;;;;;;15.05;78.62;99478.06;5036059;28;1217;-61
2022/09/26 04:33:46;;;;;;;;;;;;;;;15.04;78.89;99473.69;5035973;28;1031;-61
2022/09/26 04:36:12;;;;;;;;;;;;;;;15.04;78.56;99474.50;5035748;28;1894;-61
2022/09/26 04:38:38;;;;;;;;;;;;;;;15.05;79.11;99469.81;5036154;28;1018;-61
2022/09/26 04:41:04;;;;;;;;;;;;;;;15.04;78.82;99462.69;5035887;28;1212;-61
2022/09/26 04:43:29;;;;;;;;;;;;;;;15.03;78.53;99463.81;5035912;28;855;-61
2022/09/26 04:45:54;;;;;;;;;;;;;;;15.02;78.49;99451.97;5035551;28;955;-62
2022/09/26 04:48:20;;;;;;;;;;;;;;;15.02;79.31;99451.97;5035715;28;975;-61
2022/09/26 04:50:45;;;;;;;;;;;;;;;15.02;78.70;99451.97;5035669;28;1271;-61
2022/09/26 04:53:11;;;;;;;;;;;;;;;15.02;78.72;99440.16;5035738;28;1038;-61
2022/09/26 04:55:36;;;;;;;;;;;;;;;15.01;78.61;99442.09;5035655;28;1902;-61
2022/09/26 04:58:01;;;;;;;;;;;;;;;15.02;79.06;99442.91;5035531;28;959;-61
2022/09/26 05:00:26;;;;;;;;;;;;;;;15.01;78.44;99435.78;5035518;28;1209;-61
2022/09/26 05:02:51;;;;;;;;;;;;;;;15.01;78.97;99441.28;5035437;28;887;-62
2022/09/26 05:05:16;;;;;;;;;;;;;;;15.01;78.88;99431.06;5035492;28;773;-61
2022/09/26 05:07:42;;;;;;;;;;;;;;;15.00;78.61;99434.16;5035063;28;940;-61
2022/09/26 05:10:09;;;;;;;;;;;;;;;15.00;78.51;99423.94;5035419;28;1295;-61
2022/09/26 05:12:35;;;;;;;;;;;;;;;14.99;78.95;99416.00;5035287;28;822;-61
2022/09/26 05:15:00;;;;;;;;;;;;;;;14.99;78.97;99418.78;5035233;28;1894;-62
2022/09/26 05:17:26;;;;;;;;;;;;;;;14.99;79.20;99410.50;5034879;28;741;-60
2022/09/26 05:19:51;;;;;;;;;;;;;;;14.99;78.94;99413.25;5035088;28;1302;-61
2022/09/26 05:22:16;;;;;;;;;;;;;;;14.97;78.66;99408.06;5035329;28;844;-61
2022/09/26 05:27:25;;;;;;;;;;;;;;;14.97;79.09;99404.53;5034802;28;658;-61
2022/09/26 05:29:54;;;;;;;;;;;;;;;14.99;78.89;99405.00;5034801;28;1198;-61
2022/09/26 05:32:19;;;;;;;;;;;;;;;14.97;78.38;99399.81;5035121;28;806;-61
2022/09/26 05:34:46;;;;;;;;;;;;;;;14.96;79.04;99389.16;5035013;28;1894;-61
2022/09/26 05:37:11;;;;;;;;;;;;;;;14.97;78.91;99385.25;5034703;28;826;-61
2022/09/26 05:42:20;;;;;;;;;;;;;;;14.96;79.22;99384.44;5034726;28;628;-61
2022/09/26 05:44:45;;;;;;;;;;;;;;;14.96;78.99;99378.13;5034640;28;877;-61
2022/09/26 05:47:10;;;;;;;;;;;;;;;14.94;78.37;99378.47;5034579;28;916;-61
2022/09/26 05:49:35;;;;;;;;;;;;;;;14.94;79.15;99383.97;5034809;28;883;-61
2022/09/26 05:52:01;;;;;;;;;;;;;;;14.95;79.12;99376.50;5034393;28;1224;-61
2022/09/26 05:54:26;;;;;;;;;;;;;;;14.94;79.14;99374.91;5034494;28;1879;-60
2022/09/26 05:56:52;;;;;;;;;;;;;;;14.93;79.24;99385.09;5034141;28;934;-61
2022/09/26 05:59:17;;;;;;;;;;;;;;;14.93;78.28;99381.53;5034351;28;813;-61
2022/09/26 06:01:43;;;;;;;;;;;;;;;14.93;78.19;99381.53;5034555;28;1230;-60
2022/09/26 06:04:09;;;;;;;;;;;;;;;14.92;78.49;99377.97;5034321;28;980;-61
2022/09/26 06:06:35;;;;;;;;;;;;;;;14.92;78.40;99369.72;5034095;28;833;-62
2022/09/26 06:09:02;;;;;;;;;;;;;;;14.92;79.09;99377.97;5034218;28;925;-62
2022/09/26 06:11:29;;;;;;;;;;;;;;;14.92;78.71;99366.16;5033970;28;1236;-61
2022/09/26 06:13:55;;;;;;;;;;;;;;;14.92;78.44;99377.16;5034001;28;1021;-61
2022/09/26 06:16:20;;;;;;;;;;;;;;;14.91;79.05;99361.78;5034079;28;837;-61
2022/09/26 06:18:46;;;;;;;;;;;;;;;14.91;78.57;99372.81;5033968;28;1678;-60
2022/09/26 06:21:12;;;;;;;;;;;;;;;14.90;79.01;99360.16;5033861;28;2175;-61
2022/09/26 06:23:38;;;;;;;;;;;;;;;14.91;78.27;99367.28;5033850;28;2059;-61
2022/09/26 06:26:03;;;;;;;;;;;;;;;14.91;78.54;99372.81;5033528;28;901;-61
2022/09/26 06:28:29;;;;;;;;;;;;;;;14.90;79.19;99360.97;5034101;28;838;-61
2022/09/26 06:30:54;;;;;;;;;;;;;;;14.90;79.36;99360.97;5033762;28;1196;-61
2022/09/26 06:33:20;;;;;;;;;;;;;;;14.91;78.46;99356.28;5033785;28;1051;-61
2022/09/26 06:35:45;;;;;;;;;;;;;;;14.89;78.34;99353.84;5033539;28;1897;-61
2022/09/26 06:38:10;;;;;;;;;;;;;;;14.90;78.92;99351.91;5033717;28;864;-61
2022/09/26 06:40:36;;;;;;;;;;;;;;;14.88;78.91;99341.25;5033536;28;1192;-61
2022/09/26 06:43:01;;;;;;;;;;;;;;;14.89;78.53;99344.78;5033640;28;995;-61
2022/09/26 06:45:26;;;;;;;;;;;;;;;14.88;79.23;99344.00;5033310;28;980;-61
2022/09/26 06:47:52;;;;;;;;;;;;;;;14.88;79.22;99338.47;5033505;28;855;-61
2022/09/26 06:50:17;;;;;;;;;;;;;;;14.87;78.43;99336.88;5033474;28;1224;-61
2022/09/26 06:52:43;;;;;;;;;;;;;;;14.89;78.24;99339.25;5033542;28;956;-61
2022/09/26 06:55:08;;;;;;;;;;;;;;;14.88;78.51;99334.91;5033310;28;1905;-61
2022/09/26 06:57:38;;;;;;;;;;;;;;;14.88;78.87;99329.41;5033068;28;797;-61
2022/09/26 07:00:04;;;;;;;;;;;;;;;14.87;78.93;99325.03;5033497;28;1214;-62
2022/09/26 07:02:29;;;;;;;;;;;;;;;14.87;78.83;99319.53;5033344;28;1170;-61
2022/09/26 07:04:54;;;;;;;;;;;;;;;14.86;78.95;99321.47;5033753;28;617;-61
2022/09/26 07:07:19;;;;;;;;;;;;;;;14.86;78.88;99324.22;5033092;28;786;-61
2022/09/26 07:09:44;;;;;;;;;;;;;;;14.87;78.84;99316.78;5033310;28;927;-61
2022/09/26 07:12:10;;;;;;;;;;;;;;;14.86;78.48;99318.72;5033140;28;1212;-61
2022/09/26 07:14:36;;;;;;;;;;;;;;;14.86;79.01;99315.97;5033375;28;1961;-62
2022/09/26 07:17:01;;;;;;;;;;;;;;;14.86;78.62;99317.91;5033028;28;858;-61
2022/09/26 07:19:27;;;;;;;;;;;;;;;14.70;78.44;99291.00;5033219;28;1004;-62
2022/09/26 07:21:53;;;;;;;;;;;;;;;14.86;78.54;99306.91;5033169;28;1195;-62
2022/09/26 07:24:19;;;;;;;;;;;;;;;14.86;79.15;99307.69;5033505;28;904;-61
2022/09/26 07:26:44;;;;;;;;;;;;;;;14.85;78.89;99306.09;5033325;28;836;-61
2022/09/26 07:29:09;;;;;;;;;;;;;;;14.51;74.40;99300.88;5033291;28;844;-61
2022/09/26 07:31:35;;;;;;;;;;;;;;;13.90;75.57;99303.16;5033033;28;1252;-60
2022/09/26 07:34:02;;;;;;;;;;;;;;;13.74;77.91;99302.09;5033036;28;1902;-61
2022/09/26 07:36:28;;;;;;;;;;;;;;;13.95;79.10;99301.00;5032874;28;829;-61
2022/09/26 07:38:53;;;;;;;;;;;;;;;14.19;79.14;99299.59;5033401;28;667;-59
2022/09/26 07:41:18;;;;;;;;;;;;;;;14.35;77.79;99295.13;5032809;28;1206;-61
2022/09/26 07:43:43;;;;;;;;;;;;;;;14.46;77.94;99292.81;5032956;28;988;-61
2022/09/26 07:51:37;;;;;;;;;;;;;;;14.68;78.28;99289.72;5032680;28;1192;-60
2022/09/26 07:54:03;;;;;;;;;;;;;;;14.70;78.23;99284.69;5032921;28;1898;-61
2022/09/26 07:56:29;;;;;;;;;;;;;;;14.73;77.41;99282.03;5032944;28;819;-61
2022/09/26 07:58:54;;;;;;;;;;;;;;;14.74;77.98;99277.34;5036842;28;809;-61
2022/09/26 08:01:20;;;;;;;;;;;;;;;14.79;77.26;99284.59;5036647;28;1276;-61
2022/09/26 08:03:46;;;;;;;;;;;;;;;14.79;77.42;99268.88;5036672;28;971;-60
2022/09/26 08:06:13;;;;;;;;;;;;;;;14.81;77.87;99263.81;5036215;28;834;-60
2022/09/26 08:08:40;;;;;;;;;;;;;;;14.83;77.74;99263.47;5036638;28;901;-60
2022/09/26 08:11:11;;;;;;;;;;;;;;;14.85;76.96;99250.19;5036571;28;1240;-61
2022/09/26 08:13:36;;;;;;;;;;;;;;;14.85;77.05;99261.19;5036487;28;1540;-60
2022/09/26 08:16:03;;;;;;;;;;;;;;;14.86;77.59;99251.78;5036034;28;1989;-61
2022/09/26 08:18:29;;;;;;;;;;;;;;;14.87;77.63;99247.91;5036268;28;1151;-62
2022/09/26 08:20:54;;;;;;;;;;;;;;;14.87;76.77;99247.91;5036094;28;1265;-60
2022/09/26 08:23:19;;;;;;;;;;;;;;;14.89;76.73;99251.09;5036145;28;1027;-62
2022/09/26 08:25:44;;;;;;;;;;;;;;;14.88;77.50;99253.06;5036238;28;840;-61
2022/09/26 08:28:13;;;;;;;;;;;;;;;14.88;77.02;99241.25;5036171;28;773;-61
2022/09/26 08:30:43;;;;;;;;;;;;;;;14.88;77.55;99244.81;5036163;28;1209;-62
2022/09/26 08:33:11;;;;;;;;;;;;;;;14.90;76.81;99249.97;5036076;28;912;-61
2022/09/26 08:35:37;;;;;;;;;;;;;;;14.89;77.68;99243.63;5035880;28;1894;-61
2022/09/26 08:38:03;;;;;;;;;;;;;;;14.90;77.27;99236.19;5035886;28;956;-61
2022/09/26 08:40:34;;;;;;;;;;;;;;;14.90;76.85;99237.00;5035976;28;1197;-61
2022/09/26 08:43:28;;;;;;;;;;;;;;;14.91;77.43;99221.25;5035940;28;829;-62
2022/09/26 08:46:30;;;;;;;;;;;;;;;14.90;77.08;99217.69;5033681;28;1404;-62
2022/09/26 08:49:14;;;;;;;;;;;;;;;14.90;77.49;99214.13;5035665;28;1237;-62
2022/09/26 08:51:42;;;;;;;;;;;;;;;14.90;77.45;99209.44;5036232;28;1571;-61
2022/09/26 08:54:27;;;;;;;;;;;;;;;14.91;76.79;99215.75;5035496;28;1951;-61
2022/09/26 08:56:56;;;;;;;;;;;;;;;14.91;76.79;99215.75;5024597;28;1953;-61
2022/09/26 08:59:47;;;;;;;;;;;;;;;14.93;77.67;99213.47;5035218;28;988;-60
2022/09/26 09:02:29;;;;;;;;;;;;;;;14.93;76.86;99203.25;5032474;28;1348;-60
2022/09/26 09:05:13;;;;;;;;;;;;;;;14.93;76.87;99213.47;5035427;28;849;-60
2022/09/26 09:07:38;;;;;;;;;;;;;;;14.94;77.60;99204.88;5034910;28;775;-61
2022/09/26 09:10:09;;;;;;;;;;;;;;;14.96;77.31;99199.03;5035410;28;1306;-60
2022/09/26 09:12:35;;;;;;;;;;;;;;;14.96;76.68;99194.31;5035465;28;822;-60
2022/09/26 09:15:03;;;;;;;;;;;;;;;14.96;76.67;99190.75;5035161;28;1945;-60
2022/09/26 09:17:28;;;;;;;;;;;;;;;14.97;76.98;99195.13;5034935;28;817;-61
2022/09/26 09:20:05;;;;;;;;;;;;;;;14.98;77.51;99193.94;5035415;28;1300;-60
2022/09/26 09:22:51;;;;;;;;;;;;;;;14.98;77.51;99180.19;5035196;28;872;-61
2022/09/26 09:25:22;;;;;;;;;;;;;;;15.00;76.58;99186.16;5035328;28;1042;-59
2022/09/26 09:28:06;;;;;;;;;;;;;;;15.00;77.29;99175.13;5035111;28;988;-59
2022/09/26 09:30:39;;;;;;;;;;;;;;;15.00;77.28;99169.63;5034965;28;1217;-60
2022/09/26 09:33:36;;;;;;;;;;;;;;;15.01;76.80;99166.53;5035005;28;1007;-59
2022/09/26 09:36:07;;;;;;;;;;;;;;;15.02;77.43;99161.81;5001018;28;1894;-59
2022/09/26 09:38:35;;;;;;;;;;;;;;;15.02;76.56;99159.88;5034770;28;1406;-59
2022/09/26 09:41:03;;;;;;;;;;;;;;;15.03;76.80;99168.94;5034764;28;1189;-59
2022/09/26 09:43:40;;;;;;;;;;;;;;;15.03;77.40;99155.97;5034687;28;1031;-59
2022/09/26 09:46:22;;;;;;;;;;;;;;;15.03;77.49;99155.16;5034383;28;872;-59
2022/09/26 09:48:49;;;;;;;;;;;;;;;15.03;77.39;99158.72;5034868;28;861;-59
2022/09/26 09:51:17;;;;;;;;;;;;;;;15.03;77.49;99152.41;5034493;28;1291;-59
2022/09/26 09:53:48;;;;;;;;;;;;;;;15.04;77.46;99148.50;5034591;28;858;-60
2022/09/26 09:56:13;;;;;;;;;;;;;;;15.03;77.32;99158.72;5034286;28;1934;-61
2022/09/26 09:58:50;;;;;;;;;;;;;;;15.03;76.86;99153.22;5034395;28;857;-59
2022/09/26 10:01:34;;;;;;;;;;;;;;;15.04;77.49;99143.00;5034351;28;1213;-61
2022/09/26 10:04:19;;;;;;;;;;;;;;;15.04;76.98;99140.25;5034466;28;864;-60
2022/09/26 10:06:45;;;;;;;;;;;;;;;15.03;77.22;99146.91;5034025;28;817;-60
2022/09/26 10:09:22;;;;;;;;;;;;;;;15.03;76.78;99144.16;5034175;28;989;-61
2022/09/26 10:11:47;;;;;;;;;;;;;;;15.02;76.56;99137.84;5034197;28;1364;-60
2022/09/26 10:14:18;;;;;;;;;;;;;;;15.02;77.51;99145.28;5034083;28;1952;-60
2022/09/26 10:17:03;;;;;;;;;;;;;;;15.02;77.50;99134.28;5034102;28;874;-60
2022/09/26 10:19:36;;;;;;;;;;;;;;;15.01;77.20;99138.97;5023001;28;1251;-60
2022/09/26 10:22:01;;;;;;;;;;;;;;;15.02;77.51;99137.03;5034391;28;1587;-60
2022/09/26 10:24:33;;;;;;;;;;;;;;;15.03;76.45;99135.88;5034169;28;1034;-61
2022/09/26 10:27:12;;;;;;;;;;;;;;;15.03;77.53;99135.88;5033735;28;805;-60
2022/09/26 10:29:38;;;;;;;;;;;;;;;15.03;76.93;99130.38;5033854;28;905;-63
2022/09/26 10:32:04;;;;;;;;;;;;;;;15.02;76.58;99126.00;5033693;28;1205;-62
2022/09/26 10:34:30;;;;;;;;;;;;;;;15.03;77.30;99128.41;5033766;28;1902;-62
2022/09/26 10:36:56;;;;;;;;;;;;;;;15.04;76.83;99129.22;5033607;28;858;-63
2022/09/26 10:42:18;;;;;;;;;;;;;;;15.04;76.76;99123.72;5033674;28;1321;-62
2022/09/26 10:44:45;;;;;;;;;;;;;;;15.05;77.31;99123.38;5033842;28;807;-63
2022/09/26 10:47:15;;;;;;;;;;;;;;;15.05;77.10;99119.81;5033726;28;953;-62
2022/09/26 10:49:53;;;;;;;;;;;;;;;15.05;76.63;99123.38;5033399;28;1047;-63
2022/09/26 10:52:22;;;;;;;;;;;;;;;15.05;77.05;99114.31;5033569;28;823;-62
2022/09/26 10:54:56;;;;;;;;;;;;;;;15.06;76.93;99111.19;5033401;28;1969;-63
2022/09/26 10:57:23;;;;;;;;;;;;;;;15.08;77.06;99121.88;5033197;28;866;-63
2022/09/26 10:59:50;;;;;;;;;;;;;;;15.08;77.22;99113.59;5033625;28;1288;-63
2022/09/26 11:02:18;;;;;;;;;;;;;;;15.09;77.14;99110.50;5033417;28;900;-62
2022/09/26 11:07:33;;;;;;;;;;;;;;;15.09;77.34;99095.91;5033279;28;707;-62
2022/09/26 11:10:00;;;;;;;;;;;;;;;15.09;77.27;99101.44;5033397;28;1280;-62
2022/09/26 11:12:26;;;;;;;;;;;;;;;15.09;76.37;99095.91;5033394;28;882;-63
2022/09/26 11:14:55;;;;;;;;;;;;;;;15.09;77.27;99099.47;5033185;28;1890;-63
2022/09/26 11:17:20;;;;;;;;;;;;;;;15.09;76.67;99085.69;5032982;28;889;-61
2022/09/26 11:19:57;;;;;;;;;;;;;;;15.09;76.48;99088.44;5033146;28;908;-62
2022/09/26 11:22:42;;;;;;;;;;;;;;;15.10;77.10;99086.50;5033382;28;810;-62
2022/09/26 11:25:13;;;;;;;;;;;;;;;15.10;77.28;99075.47;5033170;28;999;-63
2022/09/26 11:27:52;;;;;;;;;;;;;;;15.09;77.05;99076.63;5032833;28;873;-61
2022/09/26 11:30:21;;;;;;;;;;;;;;;15.07;77.12;99074.22;5032959;28;1293;-62
2022/09/26 11:32:48;;;;;;;;;;;;;;;15.08;77.03;99073.06;5037523;28;793;-63
2022/09/26 11:35:13;;;;;;;;;;;;;;;15.08;76.50;99070.31;5037032;28;1973;-62
2022/09/26 11:37:49;;;;;;;;;;;;;;;15.08;76.93;99058.47;5037202;28;845;-62
2022/09/26 11:40:33;;;;;;;;;;;;;;;15.09;76.57;99062.84;5037086;28;1209;-63
2022/09/26 11:43:12;;;;;;;;;;;;;;;15.09;77.00;99060.09;5036939;28;1173;-63
2022/09/26 11:45:50;;;;;;;;;;;;;;;15.08;77.11;99070.31;5037153;28;877;-63
2022/09/26 11:48:34;;;;;;;;;;;;;;;15.09;76.75;99062.84;5036987;28;865;-62
2022/09/26 11:51:23;;;;;;;;;;;;;;;15.10;76.65;99059.75;5036725;28;1198;-62
2022/09/26 11:53:51;;;;;;;;;;;;;;;15.12;76.36;99062.16;5036809;28;1070;-63
2022/09/26 11:56:34;;;;;;;;;;;;;;;15.14;76.81;99070.91;5036723;28;1957;-62
2022/09/26 11:59:18;;;;;;;;;;;;;;;15.13;77.02;99067.34;5036746;28;1040;-62
2022/09/26 12:01:53;;;;;;;;;;;;;;;15.13;76.98;99059.06;5036531;28;1283;-61
2022/09/26 12:04:19;;;;;;;;;;;;;;;15.14;77.11;99065.38;5036803;28;871;-63
2022/09/26 12:06:52;;;;;;;;;;;;;;;15.12;76.49;99049.19;5036297;28;837;-63
2022/09/26 12:09:30;;;;;;;;;;;;;;;15.13;77.08;99050.00;5036538;28;830;-62
2022/09/26 12:12:05;;;;;;;;;;;;;;;15.13;77.04;99036.22;5036431;28;1277;-62
2022/09/26 12:14:51;;;;;;;;;;;;;;;15.13;77.19;99042.53;5036589;28;1934;-63
2022/09/26 12:17:24;;;;;;;;;;;;;;;15.13;76.60;99036.22;5036280;28;932;-62
2022/09/26 12:19:49;;;;;;;;;;;;;;;15.12;77.04;99029.09;5036399;28;1201;-62
2022/09/26 12:22:27;;;;;;;;;;;;;;;15.13;77.01;99022.44;5036327;28;887;-63
2022/09/26 12:24:52;;;;;;;;;;;;;;;15.13;77.02;99025.19;5036461;28;896;-62
2022/09/26 12:27:30;;;;;;;;;;;;;;;15.12;77.02;99012.56;5035997;28;876;-62
2022/09/26 12:30:09;;;;;;;;;;;;;;;15.13;76.57;99009.47;5036093;28;1216;-62
2022/09/26 12:32:55;;;;;;;;;;;;;;;15.13;76.30;99001.19;5036053;28;1736;-62
2022/09/26 12:35:44;;;;;;;;;;;;;;;15.15;76.49;99000.81;5036018;28;1894;-62
2022/09/26 12:38:24;;;;;;;;;;;;;;;15.14;76.90;98986.25;5036180;28;829;-61
2022/09/26 12:41:13;;;;;;;;;;;;;;;15.14;76.82;98988.22;5035997;28;1193;-61
2022/09/26 12:43:52;;;;;;;;;;;;;;;15.14;76.29;98983.47;5005267;28;1070;-61
2022/09/26 12:46:39;;;;;;;;;;;;;;;15.14;76.58;98983.47;5035765;28;1011;-61
2022/09/26 12:49:05;;;;;;;;;;;;;;;15.14;76.39;98972.47;5035933;28;821;-61
2022/09/26 12:51:47;;;;;;;;;;;;;;;15.13;76.85;98976.38;5035566;28;1551;-61
2022/09/26 12:54:13;;;;;;;;;;;;;;;15.13;77.14;98967.31;5035827;28;1961;-59
2022/09/26 12:56:45;;;;;;;;;;;;;;;15.13;76.81;98957.09;5035542;28;813;-61
2022/09/26 12:59:30;;;;;;;;;;;;;;;15.13;76.57;98957.09;5035656;28;855;-60
2022/09/26 13:02:03;;;;;;;;;;;;;;;15.14;76.89;98955.91;5035419;28;1206;-60
2022/09/26 13:04:37;;;;;;;;;;;;;;;15.13;77.11;98943.31;5035597;28;1020;-61
2022/09/26 13:07:21;;;;;;;;;;;;;;;15.13;76.38;98946.06;5035303;28;821;-60
2022/09/26 13:09:50;;;;;;;;;;;;;;;15.13;76.81;98942.50;5035445;28;1007;-61
2022/09/26 13:12:25;;;;;;;;;;;;;;;15.13;76.93;98942.50;5035389;28;817;-61
2022/09/26 13:14:59;;;;;;;;;;;;;;;15.13;76.95;98937.00;5035422;28;1898;-61
2022/09/26 13:17:29;;;;;;;;;;;;;;;15.13;77.13;98942.50;5035260;28;818;-61
2022/09/26 13:19:58;;;;;;;;;;;;;;;15.13;77.12;98934.25;5035146;28;1227;-61
2022/09/26 13:22:33;;;;;;;;;;;;;;;15.13;76.56;98935.06;5035219;28;915;-61
2022/09/26 13:25:16;;;;;;;;;;;;;;;15.13;77.00;98928.72;5035108;28;822;-60
2022/09/26 13:28:05;;;;;;;;;;;;;;;15.13;77.17;98931.50;5035052;28;909;-60
2022/09/26 13:30:34;;;;;;;;;;;;;;;15.12;76.36;98921.63;5034992;28;1212;-61
2022/09/26 13:33:02;;;;;;;;;;;;;;;15.13;76.59;98925.97;5035019;28;994;-61
2022/09/26 13:35:29;;;;;;;;;;;;;;;15.12;76.43;98921.63;5034748;28;1911;-61